If you wish to contribute or participate in the discussions about articles you are invited to join SKYbrary as a registered user

 Actions

Chiang Mai International Airport

From SKYbrary Wiki

VTCC
Airport
ICAO: VTCC
Summary
Name Chiang Mai International Airport
Region Asia and Pacific
Territory Thailand TH.gif
Location Chiang Mai, Thailand
Serving
Coordinates 18° 46' 7.16" N, 98° 57' 58.08" E
Runways
Designator Length Width Surface ROPS
18/36 3100 m10,170.604 ft
45 m147.638 ft
ASP yes/yes


METAR
Observation VTCC 261300Z 19007KT 9999 FEW035 30/22 Q1006 NOSIG
Station Chiang Mai
Date/Time 26 May 2019 13:00:00
Wind direction 190°
Wind speed 07 kts
Lowest cloud amount few clouds
Temperature 30°C
Dew point 22°C
Humidity 62%
QNH 1006 hPa
Weather condition n/a


Chiang Mai International Airport

ICAO: VTCC IATA: CNX

Description

International airport serving the city of Chiang Mai in northern Thailand.

Climatology

Tropical Savanna climate (Köppen climate classification Aw) - monthly mean temperature above 18°C64.4 °F
291.15 K
524.07 °R
in every month of the year and a pronounced dry season.

Maps

Terrain

Loading map...

Airport Layout

Loading map...


Accidents & Serious Incidents at or in vicinity of VTCC

None on SKYbrary